createdAt,value
2022-07-28T00:00:26.431Z,0
2022-07-28T00:01:28.365Z,0
2022-07-28T00:02:30.387Z,0
2022-07-28T00:03:32.266Z,0
2022-07-28T00:04:34.274Z,0
2022-07-28T00:05:36.253Z,0
2022-07-28T00:06:38.309Z,0
2022-07-28T00:07:40.330Z,0
2022-07-28T00:08:42.264Z,0
2022-07-28T00:09:44.266Z,0
2022-07-28T00:10:46.450Z,0
2022-07-28T00:11:50.500Z,0.29
2022-07-28T00:12:50.310Z,0.26
2022-07-28T00:13:52.277Z,0.3
2022-07-28T00:14:54.279Z,0.28
2022-07-28T00:15:56.380Z,0.26
2022-07-28T00:16:58.279Z,0.37
2022-07-28T00:18:00.312Z,0.37
2022-07-28T00:19:03.389Z,0.27
2022-07-28T00:20:05.291Z,0.25
2022-07-28T00:21:07.301Z,0
2022-07-28T00:22:09.292Z,0
2022-07-28T00:23:11.316Z,0
2022-07-28T00:24:13.540Z,0
2022-07-28T00:25:15.307Z,0
2022-07-28T00:26:17.360Z,0
2022-07-28T00:27:19.642Z,0
2022-07-28T00:28:21.324Z,0
2022-07-28T00:29:23.302Z,0
2022-07-28T00:30:25.335Z,0
2022-07-28T00:31:27.375Z,0
2022-07-28T00:32:29.306Z,0
2022-07-28T00:33:31.313Z,0.27
2022-07-28T00:34:33.332Z,0.29
2022-07-28T00:35:35.326Z,0.29
2022-07-28T00:36:38.512Z,0.24
2022-07-28T00:37:40.320Z,0.2
2022-07-28T00:38:43.919Z,0.13
2022-07-28T00:39:44.348Z,0
2022-07-28T00:40:46.307Z,0
2022-07-28T00:41:48.372Z,0
2022-07-28T00:42:50.315Z,0
2022-07-28T00:43:53.427Z,0
2022-07-28T00:44:55.318Z,0.25
2022-07-28T00:45:57.333Z,0.36
2022-07-28T00:46:59.402Z,0.36
2022-07-28T00:48:01.366Z,0.42
2022-07-28T00:49:03.375Z,0.2
2022-07-28T00:50:05.337Z,0
2022-07-28T00:51:07.352Z,0
2022-07-28T00:52:09.340Z,0
2022-07-28T00:53:11.337Z,0.23
2022-07-28T00:54:13.818Z,0.27
2022-07-28T00:55:15.387Z,0.33
2022-07-28T00:56:17.406Z,0.28
2022-07-28T00:57:19.364Z,0.25
2022-07-28T00:58:21.351Z,0.25
2022-07-28T00:59:23.346Z,0.17
2022-07-28T01:00:25.373Z,0.08
2022-07-28T01:01:28.595Z,0.18
2022-07-28T01:02:30.501Z,0
2022-07-28T01:03:32.371Z,0
2022-07-28T01:04:34.358Z,0
2022-07-28T01:05:43.124Z,0.22
2022-07-28T01:06:38.358Z,0.31
2022-07-28T01:07:40.400Z,0.3
2022-07-28T01:08:42.414Z,0.36
2022-07-28T01:09:44.356Z,0.49
2022-07-28T01:10:46.417Z,0.39
2022-07-28T01:11:48.389Z,0.36
2022-07-28T01:12:50.434Z,0.46
2022-07-28T01:13:52.602Z,0.36
2022-07-28T01:14:54.408Z,0.42
2022-07-28T01:15:56.428Z,0.46
2022-07-28T01:16:58.362Z,0.51
2022-07-28T01:18:00.442Z,0.56
2022-07-28T01:19:02.438Z,0.46
2022-07-28T01:20:04.397Z,0.49
2022-07-28T01:21:06.381Z,0.41
2022-07-28T01:22:08.369Z,0.5
2022-07-28T01:23:10.439Z,0.49
2022-07-28T01:24:12.729Z,0.36
2022-07-28T01:25:14.377Z,0.29
2022-07-28T01:26:16.406Z,0.07
2022-07-28T01:27:18.390Z,0.2
2022-07-28T01:28:20.407Z,0
2022-07-28T01:29:22.824Z,0
2022-07-28T01:30:26.237Z,0.21
2022-07-28T01:31:26.581Z,0.2
2022-07-28T01:32:28.407Z,0.18
2022-07-28T01:33:30.452Z,0.11
2022-07-28T01:34:32.413Z,0
2022-07-28T01:35:34.447Z,0
2022-07-28T01:36:36.424Z,0
2022-07-28T01:37:38.391Z,0
2022-07-28T01:38:40.461Z,0
2022-07-28T01:39:42.412Z,0
2022-07-28T01:40:44.433Z,0
2022-07-28T01:41:46.425Z,0
2022-07-28T01:42:48.434Z,0
2022-07-28T01:43:50.440Z,0
2022-07-28T01:44:52.472Z,0
2022-07-28T01:45:54.522Z,0
2022-07-28T01:46:56.467Z,0
2022-07-28T01:47:58.416Z,0
2022-07-28T01:49:00.478Z,0
2022-07-28T01:50:03.541Z,0
2022-07-28T01:51:05.481Z,0
2022-07-28T01:52:07.451Z,0
2022-07-28T01:53:09.421Z,0
2022-07-28T01:54:11.724Z,0
2022-07-28T01:55:13.443Z,0
2022-07-28T01:56:15.433Z,0
2022-07-28T01:57:18.528Z,0
2022-07-28T01:58:20.440Z,0
2022-07-28T01:59:22.519Z,0
2022-07-28T02:00:24.441Z,0
2022-07-28T02:01:26.463Z,0
2022-07-28T02:02:28.497Z,0
2022-07-28T02:03:30.445Z,0
2022-07-28T02:04:32.496Z,0.19
2022-07-28T02:05:34.573Z,0
2022-07-28T02:06:36.456Z,0
2022-07-28T02:07:38.507Z,0
2022-07-28T02:08:40.452Z,0
2022-07-28T02:09:42.507Z,0.14
2022-07-28T02:10:44.443Z,0.16
2022-07-28T02:11:46.470Z,0.26
2022-07-28T02:12:48.458Z,0.2
2022-07-28T02:13:50.462Z,0.17
2022-07-28T02:14:52.722Z,0.29
2022-07-28T02:15:54.499Z,0.26
2022-07-28T02:16:56.473Z,0.31
2022-07-28T02:17:58.463Z,0.22
2022-07-28T02:19:00.464Z,0
2022-07-28T02:20:02.775Z,0.27
2022-07-28T02:21:04.472Z,0.2
2022-07-28T02:22:06.515Z,0
2022-07-28T02:23:08.519Z,0
2022-07-28T02:24:10.756Z,0
2022-07-28T02:25:12.562Z,0.16
2022-07-28T02:26:14.473Z,0.21
2022-07-28T02:27:16.469Z,0
2022-07-28T02:28:18.518Z,0
2022-07-28T02:29:40.763Z,0
2022-07-28T02:30:22.547Z,0
2022-07-28T02:31:24.546Z,0
2022-07-28T02:32:27.561Z,0
2022-07-28T02:33:34.671Z,0
2022-07-28T02:34:30.498Z,0
2022-07-28T02:35:32.549Z,0
2022-07-28T02:36:34.492Z,0
2022-07-28T02:37:36.511Z,0.27
2022-07-28T02:38:38.491Z,0.26
2022-07-28T02:39:40.522Z,0.19
2022-07-28T02:40:51.787Z,0.12
2022-07-28T02:41:53.673Z,0.24
2022-07-28T02:42:55.547Z,0.13
2022-07-28T02:44:01.020Z,0.12
2022-07-28T02:45:02.698Z,0
2022-07-28T02:46:04.571Z,0
2022-07-28T02:47:06.563Z,0
2022-07-28T02:48:08.526Z,0
2022-07-28T02:49:10.636Z,0
2022-07-28T02:50:12.516Z,0
2022-07-28T02:51:14.502Z,0.29
2022-07-28T02:52:16.532Z,0.31
2022-07-28T02:53:18.514Z,0.1
2022-07-28T02:54:20.507Z,0
2022-07-28T02:55:22.548Z,0
2022-07-28T02:56:24.534Z,0.17
2022-07-28T02:57:26.532Z,0.19
2022-07-28T02:58:28.545Z,0.17
2022-07-28T02:59:30.640Z,0
2022-07-28T03:00:32.538Z,0
2022-07-28T03:01:34.593Z,0
2022-07-28T03:02:36.558Z,0
2022-07-28T03:03:42.524Z,0
2022-07-28T03:04:40.568Z,0
2022-07-28T03:05:44.724Z,0
2022-07-28T03:06:47.488Z,0
2022-07-28T03:07:50.906Z,0
2022-07-28T03:08:51.546Z,0.24
2022-07-28T03:09:53.534Z,0.23
2022-07-28T03:10:55.535Z,0.2
2022-07-28T03:11:57.585Z,0.13
2022-07-28T03:12:59.678Z,0
2022-07-28T03:14:01.946Z,0
2022-07-28T03:15:03.597Z,0
2022-07-28T03:16:05.587Z,0
2022-07-28T03:17:07.581Z,0
2022-07-28T03:18:09.571Z,0
2022-07-28T03:19:11.544Z,0
2022-07-28T03:20:13.555Z,0
2022-07-28T03:21:15.551Z,0
2022-07-28T03:22:17.561Z,0
2022-07-28T03:23:19.561Z,0
2022-07-28T03:24:21.586Z,0
2022-07-28T03:25:23.618Z,0
2022-07-28T03:26:25.558Z,0
2022-07-28T03:27:27.557Z,0
2022-07-28T03:28:29.549Z,0
2022-07-28T03:29:31.558Z,0
2022-07-28T03:30:33.675Z,0
2022-07-28T03:31:35.589Z,0
2022-07-28T03:32:37.566Z,0
2022-07-28T03:33:39.572Z,0
2022-07-28T03:34:41.570Z,0
2022-07-28T03:35:43.567Z,0.22
2022-07-28T03:36:45.592Z,0.33
2022-07-28T03:37:47.577Z,0.22
2022-07-28T03:38:49.574Z,0.22
2022-07-28T03:39:51.583Z,0.09
2022-07-28T03:40:53.586Z,0
2022-07-28T03:41:55.612Z,0
2022-07-28T03:42:57.591Z,0
2022-07-28T03:44:00.505Z,0
2022-07-28T03:45:02.232Z,0
2022-07-28T03:46:05.820Z,0
2022-07-28T03:47:07.205Z,0.35
2022-07-28T03:48:08.594Z,0.3
2022-07-28T03:49:10.628Z,0.43
2022-07-28T03:50:12.588Z,0.37
2022-07-28T03:51:14.709Z,0.16
2022-07-28T03:52:16.621Z,0.08
2022-07-28T03:53:18.590Z,0.16
2022-07-28T03:54:20.611Z,0.25
2022-07-28T03:55:22.621Z,0.2
2022-07-28T03:56:25.650Z,0.09
2022-07-28T03:57:27.670Z,0
2022-07-28T03:58:29.936Z,0
2022-07-28T03:59:31.619Z,0
2022-07-28T04:00:33.599Z,0
2022-07-28T04:01:35.706Z,0.21
2022-07-28T04:02:37.667Z,0.24
2022-07-28T04:03:43.526Z,0.27
2022-07-28T04:04:41.693Z,0.39
2022-07-28T04:05:43.681Z,0.45
2022-07-28T04:06:45.709Z,0.43
2022-07-28T04:07:47.653Z,0.53
2022-07-28T04:08:49.906Z,0.42
2022-07-28T04:09:51.611Z,0.58
2022-07-28T04:10:54.574Z,0.5
2022-07-28T04:11:56.649Z,0.46
2022-07-28T04:12:58.640Z,0.51
2022-07-28T04:14:00.747Z,0.35
2022-07-28T04:15:02.761Z,0.45
2022-07-28T04:16:04.642Z,0.42
2022-07-28T04:17:07.857Z,0.31
2022-07-28T04:18:09.701Z,0.29
2022-07-28T04:19:11.641Z,0.31
2022-07-28T04:20:13.643Z,0.35
2022-07-28T04:21:16.705Z,0.36
2022-07-28T04:22:18.719Z,0.24
2022-07-28T04:23:20.653Z,0.16
2022-07-28T04:24:22.652Z,0.2
2022-07-28T04:25:25.448Z,0.24
2022-07-28T04:26:26.715Z,0.21
2022-07-28T04:27:28.709Z,0.24
2022-07-28T04:28:30.740Z,0
2022-07-28T04:29:32.687Z,0
2022-07-28T04:30:34.997Z,0
2022-07-28T04:31:36.653Z,0.15
2022-07-28T04:32:38.729Z,0
2022-07-28T04:33:40.675Z,0
2022-07-28T04:34:43.726Z,0
2022-07-28T04:35:45.694Z,0
2022-07-28T04:36:47.684Z,0
2022-07-28T04:37:49.753Z,0
2022-07-28T04:38:51.848Z,0.28
2022-07-28T04:39:53.719Z,0.14
2022-07-28T04:40:55.731Z,0.18
2022-07-28T04:41:57.674Z,0
2022-07-28T04:42:59.830Z,0.32
2022-07-28T04:44:02.288Z,0.17
2022-07-28T04:45:04.314Z,0.26
2022-07-28T04:46:06.831Z,0.53
2022-07-28T04:47:08.697Z,0.58
2022-07-28T04:48:10.763Z,0.51
2022-07-28T04:49:12.753Z,0.37
2022-07-28T04:50:14.724Z,0.3
2022-07-28T04:51:16.680Z,0.17
2022-07-28T04:52:18.720Z,0.14
2022-07-28T04:53:20.696Z,0.36
2022-07-28T04:54:26.447Z,0.86
2022-07-28T04:55:24.689Z,0.48
2022-07-28T04:56:26.752Z,0
2022-07-28T04:57:28.749Z,0.46
2022-07-28T04:58:30.833Z,0.29
2022-07-28T04:59:32.760Z,0.2
2022-07-28T05:00:34.839Z,0.22
2022-07-28T05:01:36.825Z,0.41
2022-07-28T05:02:38.690Z,0.1
2022-07-28T05:03:40.705Z,0.38
2022-07-28T05:04:42.794Z,0.24
2022-07-28T05:05:44.720Z,0.08
2022-07-28T05:06:46.804Z,0.51
2022-07-28T05:07:48.773Z,0.26
2022-07-28T05:08:50.738Z,0.41
2022-07-28T05:09:52.727Z,0.27
2022-07-28T05:10:54.716Z,0
2022-07-28T05:11:56.721Z,0.23
2022-07-28T05:12:58.718Z,0
2022-07-28T05:14:00.775Z,0.26
2022-07-28T05:15:02.873Z,0.32
2022-07-28T05:16:04.802Z,0.12
2022-07-28T05:17:06.746Z,0.18
2022-07-28T05:18:09.020Z,0.25
2022-07-28T05:19:10.728Z,0.33
2022-07-28T05:20:13.527Z,0.19
2022-07-28T05:21:14.768Z,0.53
2022-07-28T05:22:16.738Z,0.82
2022-07-28T05:23:18.772Z,0.74
2022-07-28T05:24:20.793Z,0.49
2022-07-28T05:25:22.752Z,0.49
2022-07-28T05:26:24.814Z,0.43
2022-07-28T05:27:26.750Z,0.69
2022-07-28T05:28:28.869Z,0.63
2022-07-28T05:29:37.569Z,0.37
2022-07-28T05:30:32.857Z,0.1
2022-07-28T05:31:34.878Z,0
2022-07-28T05:32:36.799Z,0
2022-07-28T05:33:38.776Z,0
2022-07-28T05:34:40.816Z,0.3
2022-07-28T05:35:42.773Z,0.2
2022-07-28T05:36:44.830Z,0.34
2022-07-28T05:37:46.782Z,0.28
2022-07-28T05:38:48.785Z,0.1
2022-07-28T05:39:50.785Z,0.27
2022-07-28T05:40:52.835Z,0.19
2022-07-28T05:41:54.828Z,0.37
2022-07-28T05:42:56.799Z,0.22
2022-07-28T05:43:58.784Z,0.53
2022-07-28T05:45:00.852Z,0.31
2022-07-28T05:46:02.902Z,0.36
2022-07-28T05:47:04.836Z,0.2
2022-07-28T05:48:06.828Z,0.2
2022-07-28T05:49:08.849Z,0.3
2022-07-28T05:50:10.903Z,0.09
2022-07-28T05:51:12.852Z,0
2022-07-28T05:52:14.855Z,0
2022-07-28T05:53:16.852Z,0.19
2022-07-28T05:54:18.799Z,0.21
2022-07-28T05:55:20.807Z,0
2022-07-28T05:56:22.817Z,0
2022-07-28T05:57:24.874Z,0
2022-07-28T05:58:26.821Z,0
2022-07-28T05:59:28.806Z,0.18
2022-07-28T06:00:30.877Z,0.5
2022-07-28T06:01:33.977Z,0.32
2022-07-28T06:02:35.959Z,0.29
2022-07-28T06:03:41.994Z,0.2
2022-07-28T06:04:39.841Z,0.22
2022-07-28T06:05:59.565Z,0.23
2022-07-28T06:06:43.863Z,0
2022-07-28T06:07:45.805Z,0.31
2022-07-28T06:08:47.809Z,0
2022-07-28T06:09:49.806Z,0
2022-07-28T06:10:51.835Z,0.14
2022-07-28T06:11:53.802Z,0.29
2022-07-28T06:12:55.840Z,0.05
2022-07-28T06:13:57.851Z,0
2022-07-28T06:14:59.820Z,0.15
2022-07-28T06:16:01.985Z,0
2022-07-28T06:17:03.954Z,0
2022-07-28T06:18:05.873Z,0
2022-07-28T06:19:07.837Z,0
2022-07-28T06:20:09.843Z,0.04
2022-07-28T06:21:11.852Z,0.43
2022-07-28T06:22:13.895Z,0.77
2022-07-28T06:23:15.831Z,0.45
2022-07-28T06:24:18.084Z,0.45
2022-07-28T06:25:19.860Z,0.16
2022-07-28T06:26:23.350Z,0.38
2022-07-28T06:27:23.905Z,0.2
2022-07-28T06:28:25.848Z,0.43
2022-07-28T06:29:27.857Z,0.49
2022-07-28T06:30:29.849Z,0.17
2022-07-28T06:31:31.908Z,0
2022-07-28T06:32:33.900Z,0
2022-07-28T06:33:35.856Z,0.46
2022-07-28T06:34:37.882Z,0.59
2022-07-28T06:35:43.085Z,0.49
2022-07-28T06:36:41.894Z,0.1
2022-07-28T06:37:44.586Z,0.62
2022-07-28T06:38:45.846Z,0.71
2022-07-28T06:39:48.019Z,0.69
2022-07-28T06:40:49.848Z,0.73
2022-07-28T06:41:51.942Z,0.63
2022-07-28T06:42:53.868Z,0.46
2022-07-28T06:43:55.963Z,0.24
2022-07-28T06:44:59.610Z,0
2022-07-28T06:45:59.871Z,0.47
2022-07-28T06:47:01.952Z,0.38
2022-07-28T06:48:03.875Z,0.53
2022-07-28T06:49:05.963Z,0.74
2022-07-28T06:50:08.017Z,0.58
2022-07-28T06:51:09.903Z,0
2022-07-28T06:52:11.904Z,0.28
2022-07-28T06:53:13.929Z,0.43
2022-07-28T06:54:16.287Z,0.34
2022-07-28T06:55:17.924Z,0.38
2022-07-28T06:56:20.234Z,0.54
2022-07-28T06:57:21.973Z,0.54
2022-07-28T06:58:23.925Z,0.71
2022-07-28T06:59:25.876Z,0.77
2022-07-28T07:00:28.002Z,0.64
2022-07-28T07:01:29.960Z,0.74
2022-07-28T07:02:31.935Z,0.82
2022-07-28T07:03:33.890Z,1.09
2022-07-28T07:04:36.008Z,0.9
2022-07-28T07:05:37.968Z,0.89
2022-07-28T07:06:39.932Z,1.09
2022-07-28T07:07:43.455Z,1.17
2022-07-28T07:08:43.915Z,0.96
2022-07-28T07:09:45.902Z,0.75
2022-07-28T07:10:48.039Z,1.35
2022-07-28T07:11:49.888Z,0.6
2022-07-28T07:12:51.909Z,0.48
2022-07-28T07:13:53.900Z,0.26
2022-07-28T07:14:55.979Z,0.42
2022-07-28T07:15:57.977Z,0.95
2022-07-28T07:16:59.984Z,0.52
2022-07-28T07:18:01.970Z,0.79
2022-07-28T07:19:05.822Z,0.79
2022-07-28T07:20:05.967Z,1.01
2022-07-28T07:21:07.936Z,0.77
2022-07-28T07:22:09.977Z,0.62
2022-07-28T07:23:11.955Z,0.88
2022-07-28T07:24:14.264Z,0.46
2022-07-28T07:25:15.985Z,0.25
2022-07-28T07:26:17.929Z,0.3
2022-07-28T07:27:19.972Z,0.71
2022-07-28T07:28:21.988Z,0.46
2022-07-28T07:29:23.978Z,0.44
2022-07-28T07:30:25.973Z,0.8
2022-07-28T07:31:28.035Z,1.19
2022-07-28T07:32:29.961Z,1.05
2022-07-28T07:33:31.942Z,0.72
2022-07-28T07:34:33.957Z,0.55
2022-07-28T07:36:37.955Z,0.69
2022-07-28T07:37:39.957Z,1.03
2022-07-28T07:38:41.952Z,0.83
2022-07-28T07:39:43.987Z,0.43
2022-07-28T07:40:45.984Z,0.75
2022-07-28T07:41:47.962Z,0.67
2022-07-28T07:42:50.020Z,0.23
2022-07-28T07:43:51.968Z,0.3
2022-07-28T07:44:54.045Z,0.32
2022-07-28T07:45:55.996Z,0.37
2022-07-28T07:46:58.117Z,0.24
2022-07-28T07:47:59.975Z,0.43
2022-07-28T07:49:02.330Z,0.1
2022-07-28T07:50:04.639Z,0.37
2022-07-28T07:51:06.037Z,0.26
2022-07-28T07:52:07.423Z,0.21
2022-07-28T07:53:08.986Z,0.34
2022-07-28T07:54:11.147Z,0.26
2022-07-28T07:55:12.535Z,0.26
2022-07-28T07:56:13.770Z,0.28
2022-07-28T07:57:15.065Z,0.43
2022-07-28T07:58:16.580Z,0.22
2022-07-28T07:59:17.364Z,0
2022-07-28T08:00:28.348Z,0
2022-07-28T08:01:20.476Z,0
2022-07-28T08:02:21.455Z,0
2022-07-28T08:03:23.103Z,0.5
2022-07-28T08:04:25.381Z,0.89
2022-07-28T08:05:35.240Z,0.8
2022-07-28T08:06:29.046Z,1.13
2022-07-28T08:07:31.042Z,0.72
2022-07-28T08:08:36.835Z,0.47
2022-07-28T08:09:35.033Z,1.24
2022-07-28T08:10:37.041Z,0.69
2022-07-28T08:11:39.009Z,0.27
2022-07-28T08:12:41.123Z,1.26
2022-07-28T08:13:43.023Z,1.09
2022-07-28T08:14:46.998Z,0.9
2022-07-28T08:15:47.161Z,0.63
2022-07-28T08:16:49.021Z,0.72
2022-07-28T08:17:51.106Z,1.36
2022-07-28T08:18:53.163Z,1.21
2022-07-28T08:19:55.036Z,0.82
2022-07-28T08:20:57.260Z,0.77
2022-07-28T08:21:59.065Z,0.65
2022-07-28T08:23:00.566Z,0.09
2022-07-28T08:24:01.420Z,0
2022-07-28T08:25:02.508Z,0
2022-07-28T08:26:04.186Z,0.54
2022-07-28T08:27:06.332Z,1.17
2022-07-28T08:28:08.312Z,0.85
2022-07-28T08:29:10.050Z,0.6
2022-07-28T08:30:12.536Z,0.24
2022-07-28T08:31:14.184Z,0.26
2022-07-28T08:32:16.075Z,0.28
2022-07-28T08:33:17.469Z,0.27
2022-07-28T08:34:26.630Z,0.35
2022-07-28T08:35:32.758Z,0.62
2022-07-28T08:36:23.114Z,1.04
2022-07-28T08:37:25.066Z,1.13
2022-07-28T08:38:27.098Z,0.91
2022-07-28T08:39:29.390Z,0.9
2022-07-28T08:40:31.063Z,0.78
2022-07-28T08:41:33.457Z,0.7
2022-07-28T08:42:34.480Z,0.04
2022-07-28T08:43:35.761Z,0.41
2022-07-28T08:44:36.798Z,0.23
2022-07-28T08:45:38.086Z,0.56
2022-07-28T08:46:40.297Z,0.77
2022-07-28T08:47:52.102Z,1.18
2022-07-28T08:48:44.161Z,0.77
2022-07-28T08:49:46.080Z,0.94
2022-07-28T08:50:48.098Z,1.46
2022-07-28T08:51:50.082Z,0.69
2022-07-28T08:52:52.097Z,1.18
2022-07-28T08:53:54.118Z,0.65
2022-07-28T08:54:56.102Z,1.05
2022-07-28T08:55:58.129Z,1.73
2022-07-28T08:57:00.086Z,0.71
2022-07-28T08:58:01.481Z,0.3
2022-07-28T08:59:02.496Z,0.07
2022-07-28T09:00:04.343Z,0.55
2022-07-28T09:01:06.177Z,0.44
2022-07-28T09:02:08.268Z,0.85
2022-07-28T09:03:09.540Z,0.23
2022-07-28T09:04:10.607Z,0.22
2022-07-28T09:05:11.516Z,0.53
2022-07-28T09:06:13.242Z,0.65
2022-07-28T09:07:15.188Z,1.06
2022-07-28T09:08:17.119Z,0.36
2022-07-28T09:09:19.125Z,0.44
2022-07-28T09:10:21.161Z,1.08
2022-07-28T09:11:23.194Z,0.62
2022-07-28T09:12:26.835Z,0.83
2022-07-28T09:13:27.241Z,1.35
2022-07-28T09:14:29.132Z,0.71
2022-07-28T09:15:31.449Z,0.69
2022-07-28T09:16:33.225Z,0.51
2022-07-28T09:17:35.146Z,0.51
2022-07-28T09:18:37.215Z,0.68
2022-07-28T09:19:38.533Z,0.44
2022-07-28T09:20:39.533Z,0.44
2022-07-28T09:21:41.307Z,0.53
2022-07-28T09:22:43.197Z,0.57
2022-07-28T09:23:45.151Z,0.68
2022-07-28T09:24:47.162Z,0.82
2022-07-28T09:25:49.153Z,0.48
2022-07-28T09:26:51.168Z,0.51
2022-07-28T09:27:53.814Z,0.87
2022-07-28T09:28:55.157Z,0.47
2022-07-28T09:29:57.843Z,1.08
2022-07-28T09:31:00.252Z,0.91
2022-07-28T09:32:02.493Z,0.24
2022-07-28T09:33:03.568Z,0.21
2022-07-28T09:34:04.574Z,0.06
2022-07-28T09:35:06.214Z,0.56
2022-07-28T09:36:08.176Z,0.31
2022-07-28T09:37:10.176Z,0.37
2022-07-28T09:38:12.231Z,0.17
2022-07-28T09:39:14.175Z,0.34
2022-07-28T09:40:15.556Z,0.19
2022-07-28T09:41:16.571Z,0.2
2022-07-28T09:42:18.205Z,0.65
2022-07-28T09:43:20.195Z,0.37
2022-07-28T09:44:22.317Z,0.53
2022-07-28T09:45:25.198Z,0.2
2022-07-28T09:46:26.530Z,0.16
2022-07-28T09:47:27.818Z,0.31
2022-07-28T09:48:28.704Z,0
2022-07-28T09:49:30.458Z,0.55
2022-07-28T09:50:32.205Z,0.7
2022-07-28T09:51:34.190Z,0.63
2022-07-28T09:52:36.214Z,1.26
2022-07-28T09:53:38.249Z,0.75
2022-07-28T09:54:41.102Z,0.46
2022-07-28T09:55:42.228Z,0.58
2022-07-28T09:56:45.686Z,0.77
2022-07-28T09:57:46.586Z,0.49
2022-07-28T09:58:48.233Z,1.01
2022-07-28T09:59:52.061Z,0.95
2022-07-28T10:00:52.288Z,0.93
2022-07-28T10:01:54.584Z,0.92
2022-07-28T10:03:02.911Z,0.38
2022-07-28T10:04:04.253Z,0.38
2022-07-28T10:05:08.749Z,0.65
2022-07-28T10:06:11.300Z,0.67
2022-07-28T10:07:12.604Z,0.25
2022-07-28T10:08:13.631Z,0.42
2022-07-28T10:09:15.494Z,0.4
2022-07-28T10:10:17.408Z,1.15
2022-07-28T10:11:19.263Z,0.88
2022-07-28T10:12:21.289Z,0.85
2022-07-28T10:13:23.247Z,0.82
2022-07-28T10:14:25.455Z,1.04
2022-07-28T10:15:30.809Z,1.19
2022-07-28T10:16:29.343Z,1.12
2022-07-28T10:17:31.432Z,0.95
2022-07-28T10:18:33.581Z,0.63
2022-07-28T10:19:35.255Z,0.81
2022-07-28T10:20:37.339Z,0.55
2022-07-28T10:21:39.282Z,0.43
2022-07-28T10:22:43.372Z,1.22
2022-07-28T10:23:43.273Z,1.09
2022-07-28T10:24:45.272Z,0.38
2022-07-28T10:25:47.256Z,0.54
2022-07-28T10:26:49.335Z,0.88
2022-07-28T10:27:51.382Z,0.94
2022-07-28T10:28:53.824Z,0.63
2022-07-28T10:29:55.361Z,0.43
2022-07-28T10:30:57.471Z,0.72
2022-07-28T10:31:59.295Z,0.89
2022-07-28T10:33:01.322Z,0.28
2022-07-28T10:34:03.428Z,0.86
2022-07-28T10:35:05.343Z,0.68
2022-07-28T10:36:07.277Z,0.47
2022-07-28T10:37:08.674Z,0.41
2022-07-28T10:38:10.520Z,0.78
2022-07-28T10:39:12.339Z,0.97
2022-07-28T10:40:13.761Z,0.49
2022-07-28T10:41:14.768Z,0.47
2022-07-28T10:42:15.657Z,0.35
2022-07-28T10:43:16.681Z,0.25
2022-07-28T10:44:18.012Z,0
2022-07-28T10:45:18.763Z,0.28
2022-07-28T10:46:19.763Z,0.37
2022-07-28T10:47:20.723Z,0.3
2022-07-28T10:48:21.695Z,0.25
2022-07-28T10:49:22.806Z,0.22
2022-07-28T10:50:23.710Z,0.44
2022-07-28T10:51:28.218Z,0.5
2022-07-28T10:53:26.865Z,0.24
2022-07-28T10:54:27.725Z,0.22
2022-07-28T10:55:31.799Z,0.49
2022-07-28T10:56:30.331Z,0.65
2022-07-28T10:57:32.407Z,0.55
2022-07-28T10:58:33.812Z,0.17
2022-07-28T10:59:34.937Z,0.07
2022-07-28T11:00:53.004Z,0.37
2022-07-28T11:01:51.582Z,0.12
2022-07-28T11:02:37.832Z,0.15
2022-07-28T11:03:38.873Z,0.45
2022-07-28T11:04:39.907Z,0.37
2022-07-28T11:05:40.843Z,0.36
2022-07-28T11:06:41.728Z,0.45
2022-07-28T11:07:42.758Z,0.36
2022-07-28T11:08:44.356Z,0.32
2022-07-28T11:09:46.381Z,0.48
2022-07-28T11:10:48.353Z,0.36
2022-07-28T11:11:50.484Z,0.72
2022-07-28T11:12:52.351Z,0.68
2022-07-28T11:13:54.381Z,0.55
2022-07-28T11:14:56.352Z,0.39
2022-07-28T11:15:57.741Z,0.21
2022-07-28T11:16:58.765Z,0.37
2022-07-28T11:17:59.851Z,0.31
2022-07-28T11:19:01.597Z,0.62
2022-07-28T11:20:30.363Z,0.24
2022-07-28T11:21:03.785Z,0.49
2022-07-28T11:22:04.797Z,0.53
2022-07-28T11:23:05.758Z,0.49
2022-07-28T11:24:07.382Z,0.95
2022-07-28T11:25:18.213Z,1.3
2022-07-28T11:26:11.423Z,1.15
2022-07-28T11:27:16.654Z,1.3
2022-07-28T11:28:18.551Z,0.6
2022-07-28T11:29:20.380Z,1.11
2022-07-28T11:30:22.490Z,0.72
2022-07-28T11:31:23.784Z,0.28
2022-07-28T11:32:26.446Z,0.97
2022-07-28T11:33:27.553Z,1.47
2022-07-28T11:34:29.389Z,1.76
2022-07-28T11:35:31.473Z,0.98
2022-07-28T11:36:33.384Z,0.46
2022-07-28T11:37:35.401Z,0.91
2022-07-28T11:38:37.411Z,1.42
2022-07-28T11:39:41.181Z,0.87
2022-07-28T11:40:41.856Z,0.94
2022-07-28T11:41:42.800Z,0.66
2022-07-28T11:42:43.818Z,0.19
2022-07-28T11:43:45.700Z,0.23
2022-07-28T11:44:47.046Z,0.7
2022-07-28T11:45:50.448Z,0.83
2022-07-28T11:46:48.857Z,0.67
2022-07-28T11:47:49.843Z,0.39
2022-07-28T11:48:50.951Z,0.53
2022-07-28T11:49:51.974Z,0.22
2022-07-28T11:50:52.805Z,0.34
2022-07-28T11:51:54.618Z,0.33
2022-07-28T11:52:55.938Z,0.23
2022-07-28T11:53:56.823Z,0.18
2022-07-28T11:54:57.888Z,0.09
2022-07-28T11:56:02.628Z,0.12
2022-07-28T11:57:00.947Z,0.25
2022-07-28T11:58:01.854Z,0.55
2022-07-28T11:59:03.880Z,0.26
2022-07-28T12:00:06.176Z,0.48
2022-07-28T12:01:06.849Z,0.23
2022-07-28T12:02:07.984Z,0.34
2022-07-28T12:03:09.965Z,0.33
2022-07-28T12:04:11.608Z,0.48
2022-07-28T12:05:12.989Z,0.69
2022-07-28T12:06:14.667Z,0.63
2022-07-28T12:07:15.998Z,0.39
2022-07-28T12:08:17.375Z,0.4
2022-07-28T12:09:21.813Z,0.53
2022-07-28T12:10:37.388Z,0.59
2022-07-28T12:11:19.838Z,0.41
2022-07-28T12:12:20.867Z,0.26
2022-07-28T12:13:21.867Z,0.39
2022-07-28T12:14:22.884Z,0.78
2022-07-28T12:15:23.921Z,0.51
2022-07-28T12:16:24.938Z,0.69
2022-07-28T12:17:25.896Z,0.31
2022-07-28T12:18:26.848Z,0.6
2022-07-28T12:19:32.108Z,0.65
2022-07-28T12:20:30.962Z,0.3
2022-07-28T12:21:31.860Z,0.51
2022-07-28T12:22:32.917Z,0.23
2022-07-28T12:23:35.031Z,0.72
2022-07-28T12:24:45.206Z,0.94
2022-07-28T12:25:35.896Z,0.28
2022-07-28T12:26:40.552Z,0.51
2022-07-28T12:27:37.921Z,0.32
2022-07-28T12:28:38.919Z,0.4
2022-07-28T12:29:40.233Z,0.44
2022-07-28T12:30:40.988Z,1.08
2022-07-28T12:31:42.100Z,0.55
2022-07-28T12:32:42.924Z,0.47
2022-07-28T12:33:43.887Z,0.28
2022-07-28T12:34:45.131Z,0.27
2022-07-28T12:35:46.423Z,0.64
2022-07-28T12:36:47.922Z,0.23
2022-07-28T12:37:48.994Z,0.38
2022-07-28T12:38:50.144Z,0.7
2022-07-28T12:39:50.899Z,0.37
2022-07-28T12:40:51.905Z,0.43
2022-07-28T12:41:52.975Z,0.22
2022-07-28T12:42:53.923Z,0.47
2022-07-28T12:43:54.955Z,0.57
2022-07-28T12:44:55.928Z,0.4
2022-07-28T12:45:56.979Z,0.32
2022-07-28T12:46:57.966Z,0.17
2022-07-28T12:47:58.935Z,0.35
2022-07-28T12:48:59.970Z,0.44
2022-07-28T12:50:05.020Z,0.52
2022-07-28T12:51:01.917Z,0.55
2022-07-28T12:52:03.050Z,0.35
2022-07-28T12:53:04.086Z,0.41
2022-07-28T12:54:05.051Z,0.47
2022-07-28T12:55:06.160Z,1
2022-07-28T12:56:07.060Z,0.72
2022-07-28T12:57:07.911Z,0.41
2022-07-28T12:58:09.218Z,0.4
2022-07-28T12:59:10.062Z,0.48
2022-07-28T13:00:11.091Z,0.91
2022-07-28T13:01:12.024Z,0.89
2022-07-28T13:02:13.069Z,0.44
2022-07-28T13:03:14.597Z,1.69
2022-07-28T13:04:17.078Z,1.69
2022-07-28T13:05:18.800Z,1.78
2022-07-28T13:06:20.622Z,1.45
2022-07-28T13:07:22.001Z,0.48
2022-07-28T13:08:22.997Z,0.56
2022-07-28T13:09:24.035Z,1.26
2022-07-28T13:10:25.576Z,2.14
2022-07-28T13:11:43.091Z,0.88
2022-07-28T13:12:28.016Z,0.24
2022-07-28T13:13:28.986Z,0.4
2022-07-28T13:14:29.985Z,0.87
2022-07-28T13:15:31.585Z,1.31
2022-07-28T13:16:33.677Z,1.43
2022-07-28T13:17:35.006Z,0.83
2022-07-28T13:18:36.055Z,0.83
2022-07-28T13:19:37.196Z,0.31
2022-07-28T13:20:37.956Z,0.47
2022-07-28T13:21:39.054Z,0.16
2022-07-28T13:22:40.703Z,0.35
2022-07-28T13:23:41.982Z,0.43
2022-07-28T13:24:42.971Z,0.47
2022-07-28T13:25:43.963Z,0.19
2022-07-28T13:26:45.024Z,0.3
2022-07-28T13:27:48.528Z,0.71
2022-07-28T13:28:47.014Z,0.34
2022-07-28T13:29:47.984Z,0.23
2022-07-28T13:30:49.019Z,0.26
2022-07-28T13:31:50.150Z,0.11
2022-07-28T13:32:51.164Z,0.48
2022-07-28T13:33:52.871Z,1.11
2022-07-28T13:34:54.046Z,0.59
2022-07-28T13:35:55.015Z,0.45
2022-07-28T13:36:56.048Z,0.45
2022-07-28T13:37:57.013Z,0.99
2022-07-28T13:38:58.664Z,1.89
2022-07-28T13:40:00.629Z,1.97
2022-07-28T13:41:03.179Z,1.62
2022-07-28T13:42:05.335Z,0.98
2022-07-28T13:43:06.716Z,1.36
2022-07-28T13:44:08.644Z,2.16
2022-07-28T13:45:10.685Z,1.88
2022-07-28T13:46:12.166Z,0.64
2022-07-28T13:47:16.446Z,1.81
2022-07-28T13:48:15.662Z,1.03
2022-07-28T13:49:17.853Z,0.66
2022-07-28T13:50:19.640Z,0.61
2022-07-28T13:51:21.874Z,1.02
2022-07-28T13:52:27.840Z,1.75
2022-07-28T13:53:25.814Z,1.72
2022-07-28T13:54:27.742Z,1.36
2022-07-28T13:55:29.701Z,1.35
2022-07-28T13:56:31.714Z,0.74
2022-07-28T13:57:33.826Z,0.99
2022-07-28T13:58:35.890Z,0.61
2022-07-28T13:59:37.886Z,0.59
2022-07-28T14:00:39.750Z,0.33
2022-07-28T14:01:42.411Z,0.65
2022-07-28T14:02:44.133Z,1.08
2022-07-28T14:03:46.537Z,0.73
2022-07-28T14:04:48.867Z,0.8
2022-07-28T14:05:49.695Z,1.74